sensor_id;sensor_type;location;lat;lon;timestamp;P1;durP1;ratioP1;P2;durP2;ratioP2
60464;SDS011;46314;52.392;9.758;2022-07-29T00:01:42;6.30;;;1.70;;
60464;SDS011;46314;52.392;9.758;2022-07-29T00:04:09;2.30;;;1.25;;
60464;SDS011;46314;52.392;9.758;2022-07-29T00:06:36;3.35;;;1.80;;
60464;SDS011;46314;52.392;9.758;2022-07-29T00:09:02;2.65;;;1.30;;
60464;SDS011;46314;52.392;9.758;2022-07-29T00:11:28;3.58;;;1.80;;
60464;SDS011;46314;52.392;9.758;2022-07-29T00:13:55;2.50;;;1.70;;
60464;SDS011;46314;52.392;9.758;2022-07-29T00:16:21;3.22;;;1.17;;
60464;SDS011;46314;52.392;9.758;2022-07-29T00:18:48;4.97;;;1.55;;
60464;SDS011;46314;52.392;9.758;2022-07-29T00:21:14;2.47;;;1.50;;
60464;SDS011;46314;52.392;9.758;2022-07-29T00:23:41;5.40;;;1.85;;
60464;SDS011;46314;52.392;9.758;2022-07-29T00:26:07;3.50;;;1.70;;
60464;SDS011;46314;52.392;9.758;2022-07-29T00:28:34;4.18;;;1.73;;
60464;SDS011;46314;52.392;9.758;2022-07-29T00:31:00;2.63;;;1.60;;
60464;SDS011;46314;52.392;9.758;2022-07-29T00:33:26;2.05;;;1.20;;
60464;SDS011;46314;52.392;9.758;2022-07-29T00:35:53;3.20;;;1.50;;
60464;SDS011;46314;52.392;9.758;2022-07-29T00:38:20;3.28;;;1.48;;
60464;SDS011;46314;52.392;9.758;2022-07-29T00:40:47;4.95;;;1.70;;
60464;SDS011;46314;52.392;9.758;2022-07-29T00:43:14;6.10;;;1.50;;
60464;SDS011;46314;52.392;9.758;2022-07-29T00:45:41;3.55;;;1.55;;
60464;SDS011;46314;52.392;9.758;2022-07-29T00:48:08;3.17;;;1.50;;
60464;SDS011;46314;52.392;9.758;2022-07-29T00:50:35;3.42;;;1.50;;
60464;SDS011;46314;52.392;9.758;2022-07-29T00:53:02;4.85;;;1.67;;
60464;SDS011;46314;52.392;9.758;2022-07-29T00:55:30;3.70;;;1.60;;
60464;SDS011;46314;52.392;9.758;2022-07-29T00:57:56;3.47;;;1.83;;
60464;SDS011;46314;52.392;9.758;2022-07-29T01:00:25;4.95;;;1.50;;
60464;SDS011;46314;52.392;9.758;2022-07-29T01:02:53;4.38;;;1.58;;
60464;SDS011;46314;52.392;9.758;2022-07-29T01:05:20;4.32;;;1.63;;
60464;SDS011;46314;52.392;9.758;2022-07-29T01:07:49;3.83;;;1.52;;
60464;SDS011;46314;52.392;9.758;2022-07-29T01:10:18;2.90;;;1.50;;
60464;SDS011;46314;52.392;9.758;2022-07-29T01:12:46;3.17;;;1.70;;
60464;SDS011;46314;52.392;9.758;2022-07-29T01:15:15;1.83;;;1.33;;
60464;SDS011;46314;52.392;9.758;2022-07-29T01:17:46;4.50;;;1.60;;
60464;SDS011;46314;52.392;9.758;2022-07-29T01:20:40;3.58;;;1.77;;
60464;SDS011;46314;52.392;9.758;2022-07-29T01:29:19;4.80;;;1.58;;
60464;SDS011;46314;52.392;9.758;2022-07-29T01:31:59;4.07;;;1.63;;
60464;SDS011;46314;52.392;9.758;2022-07-29T01:37:18;3.42;;;1.45;;
60464;SDS011;46314;52.392;9.758;2022-07-29T01:39:48;3.20;;;2.00;;
60464;SDS011;46314;52.392;9.758;2022-07-29T01:42:27;4.20;;;1.73;;
60464;SDS011;46314;52.392;9.758;2022-07-29T01:45:02;8.18;;;1.55;;
60464;SDS011;46314;52.392;9.758;2022-07-29T01:47:37;4.57;;;1.52;;
60464;SDS011;46314;52.392;9.758;2022-07-29T01:50:10;3.35;;;1.55;;
60464;SDS011;46314;52.392;9.758;2022-07-29T01:52:51;3.40;;;1.55;;
60464;SDS011;46314;52.392;9.758;2022-07-29T01:55:20;2.30;;;1.48;;
60464;SDS011;46314;52.392;9.758;2022-07-29T01:57:51;1.80;;;1.60;;
60464;SDS011;46314;52.392;9.758;2022-07-29T02:00:17;3.63;;;2.10;;
60464;SDS011;46314;52.392;9.758;2022-07-29T02:02:45;4.53;;;2.03;;
60464;SDS011;46314;52.392;9.758;2022-07-29T02:05:15;3.88;;;1.38;;
60464;SDS011;46314;52.392;9.758;2022-07-29T02:07:44;4.03;;;1.65;;
60464;SDS011;46314;52.392;9.758;2022-07-29T02:10:13;2.78;;;1.55;;
60464;SDS011;46314;52.392;9.758;2022-07-29T02:12:43;5.50;;;1.55;;
60464;SDS011;46314;52.392;9.758;2022-07-29T02:15:16;4.35;;;1.83;;
60464;SDS011;46314;52.392;9.758;2022-07-29T02:17:45;2.97;;;1.52;;
60464;SDS011;46314;52.392;9.758;2022-07-29T02:20:22;3.63;;;1.75;;
60464;SDS011;46314;52.392;9.758;2022-07-29T02:22:51;4.10;;;1.90;;
60464;SDS011;46314;52.392;9.758;2022-07-29T02:25:19;7.13;;;1.92;;
60464;SDS011;46314;52.392;9.758;2022-07-29T02:27:49;6.25;;;2.13;;
60464;SDS011;46314;52.392;9.758;2022-07-29T02:30:17;4.15;;;2.03;;
60464;SDS011;46314;52.392;9.758;2022-07-29T02:32:45;3.85;;;1.95;;
60464;SDS011;46314;52.392;9.758;2022-07-29T02:35:14;3.78;;;1.83;;
60464;SDS011;46314;52.392;9.758;2022-07-29T02:37:42;3.38;;;1.70;;
60464;SDS011;46314;52.392;9.758;2022-07-29T02:40:11;6.18;;;1.70;;
60464;SDS011;46314;52.392;9.758;2022-07-29T02:42:39;2.95;;;1.85;;
60464;SDS011;46314;52.392;9.758;2022-07-29T02:45:08;4.60;;;1.60;;
60464;SDS011;46314;52.392;9.758;2022-07-29T02:52:54;5.00;;;2.25;;
60464;SDS011;46314;52.392;9.758;2022-07-29T02:55:26;3.80;;;2.00;;
60464;SDS011;46314;52.392;9.758;2022-07-29T02:58:01;4.00;;;1.92;;
60464;SDS011;46314;52.392;9.758;2022-07-29T03:00:48;2.67;;;1.50;;
60464;SDS011;46314;52.392;9.758;2022-07-29T03:03:17;3.92;;;1.65;;
60464;SDS011;46314;52.392;9.758;2022-07-29T03:05:44;5.00;;;2.00;;
60464;SDS011;46314;52.392;9.758;2022-07-29T03:08:11;2.90;;;1.30;;
60464;SDS011;46314;52.392;9.758;2022-07-29T03:10:42;3.20;;;1.92;;
60464;SDS011;46314;52.392;9.758;2022-07-29T03:13:10;3.47;;;1.65;;
60464;SDS011;46314;52.392;9.758;2022-07-29T03:15:38;5.03;;;1.90;;
60464;SDS011;46314;52.392;9.758;2022-07-29T03:18:05;5.15;;;2.30;;
60464;SDS011;46314;52.392;9.758;2022-07-29T03:20:32;2.78;;;1.80;;
60464;SDS011;46314;52.392;9.758;2022-07-29T03:22:58;4.43;;;1.70;;
60464;SDS011;46314;52.392;9.758;2022-07-29T03:25:25;4.43;;;1.90;;
60464;SDS011;46314;52.392;9.758;2022-07-29T03:27:51;3.13;;;1.88;;
60464;SDS011;46314;52.392;9.758;2022-07-29T03:30:18;4.53;;;2.03;;
60464;SDS011;46314;52.392;9.758;2022-07-29T03:32:48;4.63;;;2.10;;
60464;SDS011;46314;52.392;9.758;2022-07-29T03:35:17;4.13;;;1.95;;
60464;SDS011;46314;52.392;9.758;2022-07-29T03:37:44;4.57;;;2.10;;
60464;SDS011;46314;52.392;9.758;2022-07-29T03:40:11;2.30;;;1.65;;
60464;SDS011;46314;52.392;9.758;2022-07-29T03:42:42;6.20;;;2.47;;
60464;SDS011;46314;52.392;9.758;2022-07-29T03:45:11;2.22;;;1.60;;
60464;SDS011;46314;52.392;9.758;2022-07-29T03:47:41;4.45;;;2.67;;
60464;SDS011;46314;52.392;9.758;2022-07-29T03:50:16;5.10;;;1.77;;
60464;SDS011;46314;52.392;9.758;2022-07-29T03:52:45;3.25;;;2.05;;
60464;SDS011;46314;52.392;9.758;2022-07-29T03:55:11;5.47;;;2.13;;
60464;SDS011;46314;52.392;9.758;2022-07-29T03:57:38;3.55;;;1.90;;
60464;SDS011;46314;52.392;9.758;2022-07-29T04:00:06;3.78;;;2.05;;
60464;SDS011;46314;52.392;9.758;2022-07-29T04:02:33;4.97;;;2.10;;
60464;SDS011;46314;52.392;9.758;2022-07-29T04:04:59;4.05;;;2.00;;
60464;SDS011;46314;52.392;9.758;2022-07-29T04:07:26;5.88;;;2.13;;
60464;SDS011;46314;52.392;9.758;2022-07-29T04:09:52;4.03;;;2.13;;
60464;SDS011;46314;52.392;9.758;2022-07-29T04:12:18;9.07;;;2.08;;
60464;SDS011;46314;52.392;9.758;2022-07-29T04:14:45;4.30;;;2.08;;
60464;SDS011;46314;52.392;9.758;2022-07-29T04:17:11;4.70;;;2.08;;
60464;SDS011;46314;52.392;9.758;2022-07-29T04:19:37;3.63;;;2.08;;
60464;SDS011;46314;52.392;9.758;2022-07-29T04:22:04;4.28;;;2.10;;
60464;SDS011;46314;52.392;9.758;2022-07-29T04:24:30;5.95;;;2.65;;
60464;SDS011;46314;52.392;9.758;2022-07-29T04:26:56;3.25;;;2.00;;
60464;SDS011;46314;52.392;9.758;2022-07-29T04:29:23;4.18;;;2.42;;
60464;SDS011;46314;52.392;9.758;2022-07-29T04:31:49;3.75;;;2.22;;
60464;SDS011;46314;52.392;9.758;2022-07-29T04:34:15;4.43;;;2.28;;
60464;SDS011;46314;52.392;9.758;2022-07-29T04:36:42;5.18;;;2.10;;
60464;SDS011;46314;52.392;9.758;2022-07-29T04:39:09;7.68;;;2.38;;
60464;SDS011;46314;52.392;9.758;2022-07-29T04:41:35;4.95;;;2.75;;
60464;SDS011;46314;52.392;9.758;2022-07-29T04:44:01;5.07;;;2.08;;
60464;SDS011;46314;52.392;9.758;2022-07-29T04:46:28;5.13;;;2.30;;
60464;SDS011;46314;52.392;9.758;2022-07-29T04:48:54;3.50;;;2.40;;
60464;SDS011;46314;52.392;9.758;2022-07-29T04:51:21;5.85;;;2.38;;
60464;SDS011;46314;52.392;9.758;2022-07-29T04:53:48;7.03;;;2.28;;
60464;SDS011;46314;52.392;9.758;2022-07-29T04:56:14;4.75;;;2.40;;
60464;SDS011;46314;52.392;9.758;2022-07-29T04:58:40;4.70;;;2.15;;
60464;SDS011;46314;52.392;9.758;2022-07-29T05:01:07;4.70;;;2.72;;
60464;SDS011;46314;52.392;9.758;2022-07-29T05:03:33;4.18;;;2.03;;
60464;SDS011;46314;52.392;9.758;2022-07-29T05:05:59;6.13;;;2.30;;
60464;SDS011;46314;52.392;9.758;2022-07-29T05:08:26;6.72;;;2.30;;
60464;SDS011;46314;52.392;9.758;2022-07-29T05:10:52;8.13;;;3.03;;
60464;SDS011;46314;52.392;9.758;2022-07-29T05:13:18;5.38;;;2.20;;
60464;SDS011;46314;52.392;9.758;2022-07-29T05:15:45;3.92;;;2.20;;
60464;SDS011;46314;52.392;9.758;2022-07-29T05:18:11;5.38;;;2.85;;
60464;SDS011;46314;52.392;9.758;2022-07-29T05:20:38;3.45;;;2.28;;
60464;SDS011;46314;52.392;9.758;2022-07-29T05:23:04;5.05;;;2.10;;
60464;SDS011;46314;52.392;9.758;2022-07-29T05:25:30;5.97;;;2.80;;
60464;SDS011;46314;52.392;9.758;2022-07-29T05:28:09;12.88;;;2.95;;
60464;SDS011;46314;52.392;9.758;2022-07-29T05:30:36;5.50;;;2.67;;
60464;SDS011;46314;52.392;9.758;2022-07-29T05:33:03;5.20;;;2.30;;
60464;SDS011;46314;52.392;9.758;2022-07-29T05:35:29;6.30;;;2.92;;
60464;SDS011;46314;52.392;9.758;2022-07-29T05:37:55;4.80;;;2.22;;
60464;SDS011;46314;52.392;9.758;2022-07-29T05:40:22;4.50;;;2.30;;
60464;SDS011;46314;52.392;9.758;2022-07-29T05:42:48;5.95;;;2.65;;
60464;SDS011;46314;52.392;9.758;2022-07-29T05:45:14;6.13;;;2.17;;
60464;SDS011;46314;52.392;9.758;2022-07-29T05:47:41;3.00;;;2.30;;
60464;SDS011;46314;52.392;9.758;2022-07-29T05:50:07;6.63;;;2.83;;
60464;SDS011;46314;52.392;9.758;2022-07-29T05:52:34;5.03;;;2.75;;
60464;SDS011;46314;52.392;9.758;2022-07-29T05:55:00;3.35;;;2.35;;
60464;SDS011;46314;52.392;9.758;2022-07-29T05:57:27;8.10;;;2.88;;
60464;SDS011;46314;52.392;9.758;2022-07-29T05:59:53;4.22;;;2.40;;
60464;SDS011;46314;52.392;9.758;2022-07-29T06:02:19;4.43;;;2.47;;
60464;SDS011;46314;52.392;9.758;2022-07-29T06:04:46;7.32;;;2.60;;
60464;SDS011;46314;52.392;9.758;2022-07-29T06:07:12;6.90;;;2.35;;
60464;SDS011;46314;52.392;9.758;2022-07-29T06:09:38;5.43;;;2.38;;
60464;SDS011;46314;52.392;9.758;2022-07-29T06:12:05;6.65;;;2.70;;
60464;SDS011;46314;52.392;9.758;2022-07-29T06:14:31;4.78;;;3.20;;
60464;SDS011;46314;52.392;9.758;2022-07-29T06:16:57;9.80;;;2.95;;
60464;SDS011;46314;52.392;9.758;2022-07-29T06:19:24;5.43;;;2.45;;
60464;SDS011;46314;52.392;9.758;2022-07-29T06:21:50;8.18;;;3.47;;
60464;SDS011;46314;52.392;9.758;2022-07-29T06:24:16;4.40;;;2.63;;
60464;SDS011;46314;52.392;9.758;2022-07-29T06:26:44;3.53;;;3.13;;
60464;SDS011;46314;52.392;9.758;2022-07-29T06:29:10;7.05;;;3.40;;
60464;SDS011;46314;52.392;9.758;2022-07-29T06:31:37;8.65;;;3.47;;
60464;SDS011;46314;52.392;9.758;2022-07-29T06:34:03;3.88;;;2.42;;
60464;SDS011;46314;52.392;9.758;2022-07-29T06:36:30;5.80;;;2.33;;
60464;SDS011;46314;52.392;9.758;2022-07-29T06:39:06;5.28;;;2.97;;
60464;SDS011;46314;52.392;9.758;2022-07-29T06:41:33;5.75;;;2.70;;
60464;SDS011;46314;52.392;9.758;2022-07-29T06:43:59;6.70;;;3.15;;
60464;SDS011;46314;52.392;9.758;2022-07-29T06:46:25;9.50;;;3.20;;
60464;SDS011;46314;52.392;9.758;2022-07-29T06:48:53;6.80;;;3.08;;
60464;SDS011;46314;52.392;9.758;2022-07-29T06:51:20;5.88;;;2.70;;
60464;SDS011;46314;52.392;9.758;2022-07-29T06:53:48;5.13;;;2.90;;
60464;SDS011;46314;52.392;9.758;2022-07-29T06:56:31;4.60;;;2.55;;
60464;SDS011;46314;52.392;9.758;2022-07-29T06:59:04;5.60;;;2.63;;
60464;SDS011;46314;52.392;9.758;2022-07-29T07:01:32;6.95;;;2.58;;
60464;SDS011;46314;52.392;9.758;2022-07-29T07:03:59;5.60;;;2.95;;
60464;SDS011;46314;52.392;9.758;2022-07-29T07:06:25;5.13;;;3.17;;
60464;SDS011;46314;52.392;9.758;2022-07-29T07:08:51;7.22;;;3.42;;
60464;SDS011;46314;52.392;9.758;2022-07-29T07:11:18;6.80;;;3.10;;
60464;SDS011;46314;52.392;9.758;2022-07-29T07:13:44;7.47;;;3.30;;
60464;SDS011;46314;52.392;9.758;2022-07-29T07:16:11;5.72;;;2.97;;
60464;SDS011;46314;52.392;9.758;2022-07-29T07:18:37;5.78;;;2.85;;
60464;SDS011;46314;52.392;9.758;2022-07-29T07:21:04;4.93;;;2.45;;
60464;SDS011;46314;52.392;9.758;2022-07-29T07:23:30;5.63;;;3.25;;
60464;SDS011;46314;52.392;9.758;2022-07-29T07:25:56;8.57;;;3.25;;
60464;SDS011;46314;52.392;9.758;2022-07-29T07:28:23;7.13;;;2.83;;
60464;SDS011;46314;52.392;9.758;2022-07-29T07:30:50;7.78;;;3.15;;
60464;SDS011;46314;52.392;9.758;2022-07-29T07:33:16;5.28;;;3.10;;
60464;SDS011;46314;52.392;9.758;2022-07-29T07:35:43;4.68;;;2.60;;
60464;SDS011;46314;52.392;9.758;2022-07-29T07:38:09;8.50;;;3.00;;
60464;SDS011;46314;52.392;9.758;2022-07-29T07:40:35;6.72;;;3.33;;
60464;SDS011;46314;52.392;9.758;2022-07-29T07:43:02;8.80;;;3.55;;
60464;SDS011;46314;52.392;9.758;2022-07-29T07:45:28;5.90;;;2.80;;
60464;SDS011;46314;52.392;9.758;2022-07-29T07:47:55;7.07;;;2.80;;
60464;SDS011;46314;52.392;9.758;2022-07-29T07:50:21;7.32;;;2.97;;
60464;SDS011;46314;52.392;9.758;2022-07-29T07:52:48;6.32;;;3.20;;
60464;SDS011;46314;52.392;9.758;2022-07-29T07:55:16;5.60;;;3.35;;
60464;SDS011;46314;52.392;9.758;2022-07-29T07:57:43;6.00;;;2.85;;
60464;SDS011;46314;52.392;9.758;2022-07-29T08:00:10;7.63;;;2.75;;
60464;SDS011;46314;52.392;9.758;2022-07-29T08:02:38;5.10;;;2.53;;
60464;SDS011;46314;52.392;9.758;2022-07-29T08:05:06;5.18;;;2.83;;
60464;SDS011;46314;52.392;9.758;2022-07-29T08:07:37;8.65;;;3.50;;
60464;SDS011;46314;52.392;9.758;2022-07-29T08:10:04;6.55;;;2.47;;
60464;SDS011;46314;52.392;9.758;2022-07-29T08:12:31;6.82;;;3.00;;
60464;SDS011;46314;52.392;9.758;2022-07-29T08:14:57;3.85;;;2.90;;
60464;SDS011;46314;52.392;9.758;2022-07-29T08:17:23;4.72;;;2.50;;
60464;SDS011;46314;52.392;9.758;2022-07-29T08:19:50;3.72;;;2.30;;
60464;SDS011;46314;52.392;9.758;2022-07-29T08:22:16;5.32;;;3.28;;
60464;SDS011;46314;52.392;9.758;2022-07-29T08:24:42;5.22;;;3.38;;
60464;SDS011;46314;52.392;9.758;2022-07-29T08:27:12;7.93;;;3.53;;
60464;SDS011;46314;52.392;9.758;2022-07-29T08:29:59;7.88;;;3.67;;
60464;SDS011;46314;52.392;9.758;2022-07-29T08:32:26;4.15;;;2.90;;
60464;SDS011;46314;52.392;9.758;2022-07-29T08:35:12;6.43;;;2.90;;
60464;SDS011;46314;52.392;9.758;2022-07-29T08:37:38;9.77;;;3.70;;
60464;SDS011;46314;52.392;9.758;2022-07-29T08:40:05;3.80;;;2.80;;
60464;SDS011;46314;52.392;9.758;2022-07-29T08:42:31;6.35;;;3.00;;
60464;SDS011;46314;52.392;9.758;2022-07-29T08:44:58;4.60;;;3.05;;
60464;SDS011;46314;52.392;9.758;2022-07-29T08:47:25;7.45;;;2.95;;
60464;SDS011;46314;52.392;9.758;2022-07-29T08:49:53;9.93;;;3.90;;
60464;SDS011;46314;52.392;9.758;2022-07-29T08:52:19;4.05;;;2.75;;
60464;SDS011;46314;52.392;9.758;2022-07-29T08:54:47;5.82;;;3.05;;
60464;SDS011;46314;52.392;9.758;2022-07-29T08:57:14;8.55;;;3.75;;
60464;SDS011;46314;52.392;9.758;2022-07-29T08:59:42;5.90;;;3.08;;
60464;SDS011;46314;52.392;9.758;2022-07-29T09:02:15;8.40;;;3.78;;
60464;SDS011;46314;52.392;9.758;2022-07-29T09:04:45;7.00;;;3.28;;
60464;SDS011;46314;52.392;9.758;2022-07-29T09:07:16;7.90;;;3.40;;
60464;SDS011;46314;52.392;9.758;2022-07-29T09:09:43;14.73;;;3.53;;
60464;SDS011;46314;52.392;9.758;2022-07-29T09:12:10;9.00;;;3.63;;
60464;SDS011;46314;52.392;9.758;2022-07-29T09:14:37;6.80;;;3.17;;
60464;SDS011;46314;52.392;9.758;2022-07-29T09:17:04;9.80;;;3.72;;
60464;SDS011;46314;52.392;9.758;2022-07-29T09:19:33;6.80;;;2.97;;
60464;SDS011;46314;52.392;9.758;2022-07-29T09:22:02;7.25;;;3.13;;
60464;SDS011;46314;52.392;9.758;2022-07-29T09:24:36;7.78;;;3.70;;
60464;SDS011;46314;52.392;9.758;2022-07-29T09:27:03;9.70;;;2.97;;
60464;SDS011;46314;52.392;9.758;2022-07-29T09:29:34;12.45;;;3.95;;
60464;SDS011;46314;52.392;9.758;2022-07-29T09:32:02;6.60;;;3.55;;
60464;SDS011;46314;52.392;9.758;2022-07-29T09:34:34;8.02;;;3.03;;
60464;SDS011;46314;52.392;9.758;2022-07-29T09:37:00;9.48;;;3.38;;
60464;SDS011;46314;52.392;9.758;2022-07-29T09:39:36;7.85;;;3.33;;
60464;SDS011;46314;52.392;9.758;2022-07-29T09:42:05;10.30;;;3.72;;
60464;SDS011;46314;52.392;9.758;2022-07-29T09:44:41;11.02;;;4.65;;
60464;SDS011;46314;52.392;9.758;2022-07-29T09:47:09;8.98;;;3.60;;
60464;SDS011;46314;52.392;9.758;2022-07-29T09:49:49;8.63;;;3.90;;
60464;SDS011;46314;52.392;9.758;2022-07-29T09:52:17;8.65;;;3.75;;
60464;SDS011;46314;52.392;9.758;2022-07-29T09:54:43;8.75;;;3.72;;
60464;SDS011;46314;52.392;9.758;2022-07-29T09:57:21;5.38;;;3.15;;
60464;SDS011;46314;52.392;9.758;2022-07-29T09:59:57;8.60;;;3.78;;
60464;SDS011;46314;52.392;9.758;2022-07-29T10:02:29;6.30;;;3.33;;
60464;SDS011;46314;52.392;9.758;2022-07-29T10:04:58;8.05;;;3.35;;
60464;SDS011;46314;52.392;9.758;2022-07-29T10:07:25;5.93;;;3.00;;
60464;SDS011;46314;52.392;9.758;2022-07-29T10:09:52;12.93;;;3.50;;
60464;SDS011;46314;52.392;9.758;2022-07-29T10:12:20;6.07;;;3.60;;
60464;SDS011;46314;52.392;9.758;2022-07-29T10:14:46;6.47;;;3.40;;
60464;SDS011;46314;52.392;9.758;2022-07-29T10:17:13;8.75;;;3.63;;
60464;SDS011;46314;52.392;9.758;2022-07-29T10:19:41;7.55;;;3.97;;
60464;SDS011;46314;52.392;9.758;2022-07-29T10:22:08;6.82;;;3.20;;
60464;SDS011;46314;52.392;9.758;2022-07-29T10:24:36;6.47;;;3.97;;
60464;SDS011;46314;52.392;9.758;2022-07-29T10:27:05;7.38;;;3.33;;
60464;SDS011;46314;52.392;9.758;2022-07-29T10:29:33;6.22;;;3.15;;
60464;SDS011;46314;52.392;9.758;2022-07-29T10:34:55;6.50;;;3.33;;
60464;SDS011;46314;52.392;9.758;2022-07-29T10:37:44;7.63;;;3.30;;
60464;SDS011;46314;52.392;9.758;2022-07-29T10:43:24;6.78;;;3.25;;
60464;SDS011;46314;52.392;9.758;2022-07-29T10:45:59;7.70;;;3.63;;
60464;SDS011;46314;52.392;9.758;2022-07-29T10:48:26;10.52;;;3.75;;
60464;SDS011;46314;52.392;9.758;2022-07-29T10:50:53;5.05;;;4.10;;
60464;SDS011;46314;52.392;9.758;2022-07-29T10:53:25;7.18;;;3.45;;
60464;SDS011;46314;52.392;9.758;2022-07-29T10:56:31;7.63;;;3.30;;
60464;SDS011;46314;52.392;9.758;2022-07-29T11:01:48;6.63;;;3.38;;
60464;SDS011;46314;52.392;9.758;2022-07-29T11:07:12;9.48;;;3.65;;
60464;SDS011;46314;52.392;9.758;2022-07-29T11:09:40;12.60;;;4.00;;
60464;SDS011;46314;52.392;9.758;2022-07-29T11:15:05;7.55;;;3.47;;
60464;SDS011;46314;52.392;9.758;2022-07-29T11:20:31;7.10;;;4.05;;
60464;SDS011;46314;52.392;9.758;2022-07-29T11:22:59;8.10;;;3.53;;
60464;SDS011;46314;52.392;9.758;2022-07-29T11:25:26;8.90;;;3.22;;
60464;SDS011;46314;52.392;9.758;2022-07-29T11:28:16;6.55;;;3.50;;
60464;SDS011;46314;52.392;9.758;2022-07-29T11:30:52;5.20;;;2.92;;
60464;SDS011;46314;52.392;9.758;2022-07-29T11:33:32;5.13;;;2.90;;
60464;SDS011;46314;52.392;9.758;2022-07-29T11:36:19;4.80;;;3.08;;
60464;SDS011;46314;52.392;9.758;2022-07-29T11:38:53;7.03;;;3.17;;
60464;SDS011;46314;52.392;9.758;2022-07-29T11:45:01;7.65;;;3.45;;
60464;SDS011;46314;52.392;9.758;2022-07-29T11:47:50;5.32;;;3.45;;
60464;SDS011;46314;52.392;9.758;2022-07-29T11:50:36;8.43;;;3.00;;
60464;SDS011;46314;52.392;9.758;2022-07-29T11:53:10;5.72;;;2.88;;
60464;SDS011;46314;52.392;9.758;2022-07-29T11:55:38;6.90;;;3.10;;
60464;SDS011;46314;52.392;9.758;2022-07-29T11:58:20;3.80;;;3.40;;
60464;SDS011;46314;52.392;9.758;2022-07-29T12:03:23;4.45;;;2.80;;
60464;SDS011;46314;52.392;9.758;2022-07-29T12:06:02;8.52;;;3.70;;
60464;SDS011;46314;52.392;9.758;2022-07-29T12:08:38;5.75;;;3.60;;
60464;SDS011;46314;52.392;9.758;2022-07-29T12:11:14;5.05;;;2.88;;
60464;SDS011;46314;52.392;9.758;2022-07-29T12:13:41;7.72;;;2.67;;
60464;SDS011;46314;52.392;9.758;2022-07-29T12:16:08;9.25;;;2.90;;
60464;SDS011;46314;52.392;9.758;2022-07-29T12:18:39;4.20;;;2.90;;
60464;SDS011;46314;52.392;9.758;2022-07-29T12:21:06;3.67;;;3.05;;
60464;SDS011;46314;52.392;9.758;2022-07-29T12:23:33;5.93;;;3.20;;
60464;SDS011;46314;52.392;9.758;2022-07-29T12:26:03;5.45;;;2.85;;
60464;SDS011;46314;52.392;9.758;2022-07-29T12:28:38;6.35;;;3.15;;
60464;SDS011;46314;52.392;9.758;2022-07-29T12:31:04;5.82;;;3.10;;
60464;SDS011;46314;52.392;9.758;2022-07-29T12:33:33;7.35;;;3.33;;
60464;SDS011;46314;52.392;9.758;2022-07-29T12:36:00;5.80;;;2.90;;
60464;SDS011;46314;52.392;9.758;2022-07-29T12:38:42;6.13;;;3.22;;
60464;SDS011;46314;52.392;9.758;2022-07-29T12:41:10;5.07;;;2.60;;
60464;SDS011;46314;52.392;9.758;2022-07-29T12:43:36;6.93;;;2.70;;
60464;SDS011;46314;52.392;9.758;2022-07-29T12:46:13;4.60;;;2.70;;
60464;SDS011;46314;52.392;9.758;2022-07-29T12:48:42;6.35;;;3.53;;
60464;SDS011;46314;52.392;9.758;2022-07-29T12:51:10;7.40;;;3.25;;
60464;SDS011;46314;52.392;9.758;2022-07-29T12:53:37;7.78;;;3.20;;
60464;SDS011;46314;52.392;9.758;2022-07-29T12:56:04;9.55;;;3.38;;
60464;SDS011;46314;52.392;9.758;2022-07-29T12:58:51;7.28;;;3.13;;
60464;SDS011;46314;52.392;9.758;2022-07-29T13:01:19;7.15;;;3.45;;
60464;SDS011;46314;52.392;9.758;2022-07-29T13:03:50;5.55;;;2.80;;
60464;SDS011;46314;52.392;9.758;2022-07-29T13:06:42;7.70;;;3.63;;
60464;SDS011;46314;52.392;9.758;2022-07-29T13:09:15;6.82;;;3.25;;
60464;SDS011;46314;52.392;9.758;2022-07-29T13:11:47;6.53;;;2.83;;
60464;SDS011;46314;52.392;9.758;2022-07-29T13:14:30;7.07;;;3.10;;
60464;SDS011;46314;52.392;9.758;2022-07-29T13:17:09;6.35;;;3.05;;
60464;SDS011;46314;52.392;9.758;2022-07-29T13:22:17;6.32;;;2.95;;
60464;SDS011;46314;52.392;9.758;2022-07-29T13:27:22;6.53;;;3.28;;
60464;SDS011;46314;52.392;9.758;2022-07-29T13:29:50;8.88;;;4.10;;
60464;SDS011;46314;52.392;9.758;2022-07-29T13:32:17;6.07;;;3.10;;
60464;SDS011;46314;52.392;9.758;2022-07-29T13:34:53;7.57;;;3.15;;
60464;SDS011;46314;52.392;9.758;2022-07-29T13:37:21;4.70;;;3.13;;
60464;SDS011;46314;52.392;9.758;2022-07-29T13:39:47;4.90;;;3.47;;
60464;SDS011;46314;52.392;9.758;2022-07-29T13:42:18;9.57;;;3.70;;
60464;SDS011;46314;52.392;9.758;2022-07-29T13:44:45;7.25;;;3.83;;
60464;SDS011;46314;52.392;9.758;2022-07-29T13:47:11;7.35;;;3.78;;
60464;SDS011;46314;52.392;9.758;2022-07-29T13:49:38;6.72;;;3.58;;
60464;SDS011;46314;52.392;9.758;2022-07-29T13:52:04;7.57;;;4.10;;
60464;SDS011;46314;52.392;9.758;2022-07-29T13:54:30;7.82;;;4.07;;
60464;SDS011;46314;52.392;9.758;2022-07-29T13:56:57;8.48;;;3.38;;
60464;SDS011;46314;52.392;9.758;2022-07-29T13:59:23;5.30;;;3.38;;
60464;SDS011;46314;52.392;9.758;2022-07-29T14:01:49;7.10;;;3.72;;
60464;SDS011;46314;52.392;9.758;2022-07-29T14:04:16;7.85;;;3.55;;
60464;SDS011;46314;52.392;9.758;2022-07-29T14:06:43;5.90;;;3.20;;
60464;SDS011;46314;52.392;9.758;2022-07-29T14:09:09;5.72;;;3.60;;
60464;SDS011;46314;52.392;9.758;2022-07-29T14:11:35;6.13;;;3.65;;
60464;SDS011;46314;52.392;9.758;2022-07-29T14:14:02;5.70;;;3.70;;
60464;SDS011;46314;52.392;9.758;2022-07-29T14:16:28;7.80;;;3.40;;
60464;SDS011;46314;52.392;9.758;2022-07-29T14:18:54;7.15;;;3.58;;
60464;SDS011;46314;52.392;9.758;2022-07-29T14:21:21;6.18;;;4.00;;
60464;SDS011;46314;52.392;9.758;2022-07-29T14:23:47;6.35;;;3.17;;
60464;SDS011;46314;52.392;9.758;2022-07-29T14:26:14;6.30;;;3.38;;
60464;SDS011;46314;52.392;9.758;2022-07-29T14:28:49;6.72;;;3.45;;
60464;SDS011;46314;52.392;9.758;2022-07-29T14:31:16;4.00;;;3.55;;
60464;SDS011;46314;52.392;9.758;2022-07-29T14:33:42;6.57;;;3.30;;
60464;SDS011;46314;52.392;9.758;2022-07-29T14:36:11;8.35;;;3.67;;
60464;SDS011;46314;52.392;9.758;2022-07-29T14:38:37;5.35;;;3.42;;
60464;SDS011;46314;52.392;9.758;2022-07-29T14:41:04;6.05;;;3.63;;
60464;SDS011;46314;52.392;9.758;2022-07-29T14:43:30;7.15;;;3.58;;
60464;SDS011;46314;52.392;9.758;2022-07-29T14:45:56;3.10;;;2.67;;
60464;SDS011;46314;52.392;9.758;2022-07-29T14:48:30;5.15;;;3.25;;
60464;SDS011;46314;52.392;9.758;2022-07-29T14:50:56;8.10;;;4.07;;
60464;SDS011;46314;52.392;9.758;2022-07-29T14:53:29;5.75;;;3.17;;
60464;SDS011;46314;52.392;9.758;2022-07-29T14:55:55;9.23;;;3.40;;
60464;SDS011;46314;52.392;9.758;2022-07-29T14:58:40;4.80;;;2.80;;
60464;SDS011;46314;52.392;9.758;2022-07-29T15:01:16;7.57;;;3.83;;
60464;SDS011;46314;52.392;9.758;2022-07-29T15:03:43;4.93;;;3.10;;
60464;SDS011;46314;52.392;9.758;2022-07-29T15:06:09;7.63;;;3.40;;
60464;SDS011;46314;52.392;9.758;2022-07-29T15:08:35;8.95;;;3.40;;
60464;SDS011;46314;52.392;9.758;2022-07-29T15:11:02;5.82;;;3.42;;
60464;SDS011;46314;52.392;9.758;2022-07-29T15:13:28;7.95;;;3.83;;
60464;SDS011;46314;52.392;9.758;2022-07-29T15:15:55;5.68;;;3.20;;
60464;SDS011;46314;52.392;9.758;2022-07-29T15:18:25;7.80;;;3.53;;
60464;SDS011;46314;52.392;9.758;2022-07-29T15:20:51;6.78;;;3.33;;
60464;SDS011;46314;52.392;9.758;2022-07-29T15:23:19;5.68;;;3.50;;
60464;SDS011;46314;52.392;9.758;2022-07-29T15:25:45;6.70;;;3.60;;
60464;SDS011;46314;52.392;9.758;2022-07-29T15:28:12;5.78;;;3.08;;
60464;SDS011;46314;52.392;9.758;2022-07-29T15:30:38;8.45;;;3.53;;
60464;SDS011;46314;52.392;9.758;2022-07-29T15:33:04;6.20;;;3.28;;
60464;SDS011;46314;52.392;9.758;2022-07-29T15:35:31;7.53;;;4.07;;
60464;SDS011;46314;52.392;9.758;2022-07-29T15:37:58;6.70;;;3.40;;
60464;SDS011;46314;52.392;9.758;2022-07-29T15:40:24;6.55;;;3.72;;
60464;SDS011;46314;52.392;9.758;2022-07-29T15:42:51;7.32;;;3.22;;